Time;durP1;ratioP1;P1;durP2;ratioP2;P2;SDS_P1;SDS_P2;PMS_P1;PMS_P2;Temp;Humidity;BMP_temperature;BMP_pressure;BME280_temperature;BME280_humidity;BME280_pressure;Samples;Min_cycle;Max_cycle;Signal;HPM_P1;HPM_P2
2022/05/26 00:07:43;;;;;;;35.55;7.63;;;13.60;94.50;;;;;;4665916;30;20149;-81
2022/05/26 04:22:16;;;;;;;17.04;1.80;;;12.10;91.40;;;;;;5580799;22;15064717;-77
2022/05/26 04:24:47;;;;;;;12.65;2.55;;;12.10;91.40;;;;;;6065034;23;20032;-79
2022/05/26 04:27:52;;;;;;;7.90;2.00;;;12.10;91.30;;;;;;6104037;23;20278;-80
2022/05/26 04:31:10;;;;;;;16.25;2.28;;;12.20;91.30;;;;;;6100508;23;20314;-78
2022/05/26 04:33:36;;;;;;;10.73;1.88;;;12.30;91.40;;;;;;6099560;23;20036;-78
2022/05/26 04:36:39;;;;;;;;;;;;;;;;;;;;;
2022/05/26 04:39:56;;;;;;;;;;;;;;;;;;;;;
2022/05/26 04:43:20;;;;;;;9.57;2.15;;;12.70;91.00;;;;;;6106369;23;20018;-81
2022/05/26 04:46:19;;;;;;;;;;;;;;;;;;;;;
2022/05/26 04:52:27;;;;;;;11.55;1.70;;;13.20;90.60;;;;;;6108370;23;20088;-82
2022/05/26 04:55:32;;;;;;;13.13;2.13;;;13.40;90.20;;;;;;6100846;23;20025;-82
2022/05/26 05:01:28;;;;;;;7.03;1.55;;;13.60;90.20;;;;;;6121816;23;20025;-82
2022/05/26 05:04:13;;;;;;;;;;;13.70;88.90;;;;;;6100684;23;20018;-82
2022/05/26 05:07:30;;;;;;;14.38;2.17;;;14.00;87.80;;;;;;6099802;23;19992;-82
2022/05/26 05:10:41;;;;;;;;;;;;;;;;;;;;;
2022/05/26 05:16:47;;;;;;;11.05;2.00;;;14.30;86.60;;;;;;6125488;23;20022;-82
2022/05/26 05:19:27;;;;;;;11.68;2.05;;;14.40;86.20;;;;;;6100562;23;20022;-82
2022/05/26 05:22:50;;;;;;;11.52;1.95;;;14.40;85.90;;;;;;6102223;23;20342;-82
2022/05/26 05:26:18;;;;;;;8.38;1.63;;;14.50;86.20;;;;;;6103913;23;20014;-82
2022/05/26 05:29:42;;;;;;;9.75;1.92;;;14.60;84.40;;;;;;6127121;23;20107;-82
2022/05/26 05:33:04;;;;;;;10.35;1.73;;;14.70;84.80;;;;;;6126931;23;20018;-81
2022/05/26 05:47:24;;;;;;;;;;;;;;;;;;;;;
2022/05/26 05:53:42;;;;;;;12.13;1.80;;;15.60;81.00;;;;;;6088091;23;20026;-82
2022/05/26 05:57:11;;;;;;;12.65;1.80;;;15.70;81.10;;;;;;6079823;23;20018;-82
2022/05/26 06:00:24;;;;;;;9.27;1.80;;;15.70;79.50;;;;;;6125522;23;20041;-82
2022/05/26 06:03:38;;;;;;;11.43;2.03;;;15.70;78.90;;;;;;6079638;23;20089;-82
2022/05/26 06:06:50;;;;;;;8.15;1.60;;;15.70;79.70;;;;;;6101781;23;20020;-81
2022/05/26 06:10:05;;;;;;;10.27;1.90;;;15.70;80.20;;;;;;6104956;23;20385;-82
2022/05/26 06:13:02;;;;;;;10.13;1.80;;;15.90;80.30;;;;;;6127709;23;20025;-82
2022/05/26 06:16:23;;;;;;;13.25;2.08;;;15.90;79.10;;;;;;6071067;23;20014;-82
2022/05/26 06:23:51;;;;;;;8.20;1.75;;;15.80;79.40;;;;;;5930324;24;20024;-82
2022/05/26 06:30:40;;;;;;;;;;;;;;;;;;;;;
2022/05/26 06:40:55;;;;;;;;;;;;;;;;;;;;;
2022/05/26 06:44:55;;;;;;;15.40;1.92;;;16.10;77.40;;;;;;6008802;24;20079;-83
2022/05/26 06:51:39;;;;;;;;;;;;;;;;;;;;;
2022/05/26 06:54:55;;;;;;;12.45;1.90;;;16.70;77.20;;;;;;5897583;24;20064;-82
2022/05/26 06:58:20;;;;;;;8.38;1.48;;;16.80;74.30;;;;;;5898362;24;20035;-82
2022/05/26 07:01:36;;;;;;;7.32;1.58;;;16.70;74.40;;;;;;5871485;24;20139;-82
2022/05/26 07:04:36;;;;;;;11.10;1.77;;;16.60;74.40;;;;;;5849289;24;20017;-82
2022/05/26 07:07:59;;;;;;;10.48;2.10;;;16.50;75.60;;;;;;5858464;24;20111;-82
2022/05/26 07:11:00;;;;;;;10.68;1.60;;;16.50;75.20;;;;;;5894161;24;20024;-82
2022/05/26 07:14:07;;;;;;;7.93;1.52;;;16.50;74.40;;;;;;5848090;24;20017;-82
2022/05/26 07:16:55;;;;;;;7.40;1.58;;;16.40;75.90;;;;;;5871488;24;20146;-81
2022/05/26 07:19:27;;;;;;;9.40;1.45;;;16.60;75.20;;;;;;5871296;24;20056;-82
2022/05/26 07:22:11;;;;;;;13.48;1.80;;;16.50;75.90;;;;;;5871486;24;20366;-83
2022/05/26 07:25:25;;;;;;;12.05;2.20;;;16.50;74.80;;;;;;5964099;23;20109;-81
2022/05/26 07:28:51;;;;;;;9.52;1.52;;;16.50;74.30;;;;;;6041974;23;20054;-80
2022/05/26 07:31:44;;;;;;;8.80;1.88;;;16.70;74.20;;;;;;6073167;23;20019;-81
2022/05/26 07:35:17;;;;;;;13.57;1.77;;;17.20;73.10;;;;;;6066535;23;20074;-80
2022/05/26 07:44:37;;;;;;;;;;;17.60;70.70;;;;;;6069490;23;20025;-82
2022/05/26 07:47:10;;;;;;;11.32;2.45;;;17.50;72.60;;;;;;6070422;23;19924;-76
2022/05/26 11:37:30;;;;;;;25.38;3.25;;;21.20;62.20;;;;;;6149659;23;20064;-77
2022/05/26 11:40:19;;;;;;;143.98;13.00;;;21.10;62.00;;;;;;6182618;23;20351;-78
2022/05/26 11:43:13;;;;;;;13.93;2.15;;;20.80;63.20;;;;;;6159975;23;20381;-77
2022/05/26 11:46:05;;;;;;;;;;;;;;;;;;;;;
2022/05/26 11:49:05;;;;;;;11.20;1.98;;;20.80;62.00;;;;;;6184669;23;20012;-77
2022/05/26 11:55:02;;;;;;;14.05;1.70;;;20.80;61.70;;;;;;6168939;23;20021;-76
2022/05/26 11:57:37;;;;;;;8.25;1.60;;;21.00;62.10;;;;;;6184035;23;20092;-76
2022/05/26 12:00:18;;;;;;;9.20;2.08;;;20.80;61.30;;;;;;6160645;23;20013;-76
2022/05/26 12:03:20;;;;;;;12.63;2.05;;;20.70;61.20;;;;;;6206969;23;20072;-77
2022/05/26 12:05:48;;;;;;;14.63;2.10;;;20.80;61.40;;;;;;6170428;23;20019;-78
2022/05/26 12:08:32;;;;;;;8.40;1.70;;;20.90;61.40;;;;;;6184747;23;20432;-76
2022/05/26 12:11:07;;;;;;;9.18;1.67;;;20.90;61.40;;;;;;6160445;23;20012;-78
2022/05/26 12:13:39;;;;;;;10.15;2.30;;;20.90;61.00;;;;;;6160247;23;20078;-77
2022/05/26 12:16:15;;;;;;;8.65;1.50;;;20.80;60.80;;;;;;6184718;23;20024;-77
2022/05/26 12:19:09;;;;;;;8.20;1.58;;;20.80;60.30;;;;;;6160287;23;20028;-77
2022/05/26 12:21:46;;;;;;;8.85;1.60;;;20.80;60.00;;;;;;6160324;23;20017;-77
2022/05/26 12:25:03;;;;;;;7.57;1.50;;;20.90;60.60;;;;;;6184885;23;20444;-78
2022/05/26 12:27:54;;;;;;;8.82;1.67;;;21.00;60.40;;;;;;6042029;23;20084;-77
2022/05/26 12:31:01;;;;;;;10.25;1.90;;;21.20;59.50;;;;;;6018151;23;20022;-78
2022/05/26 12:33:47;;;;;;;8.60;1.48;;;21.30;59.80;;;;;;6159367;23;20017;-78
2022/05/26 12:36:48;;;;;;;10.68;1.50;;;21.20;58.80;;;;;;6134504;23;20040;-73
2022/05/26 12:40:05;;;;;;;7.82;1.90;;;21.20;59.20;;;;;;6135842;23;20511;-79
2022/05/26 12:43:11;;;;;;;16.83;2.38;;;21.30;61.30;;;;;;6109519;23;20096;-79
2022/05/26 12:46:06;;;;;;;12.30;1.70;;;21.40;61.90;;;;;;6161338;23;20071;-80
2022/05/26 12:48:54;;;;;;;10.05;1.80;;;21.30;61.70;;;;;;6159133;23;20013;-85
2022/05/26 12:51:23;;;;;;;13.70;2.30;;;21.20;61.40;;;;;;6159842;23;20447;-82
2022/05/26 15:46:07;;;;;;;11.95;3.17;;;18.10;69.60;;;;;;6179243;23;20033;-77
2022/05/26 15:48:34;;;;;;;12.18;3.40;;;18.00;71.40;;;;;;6190584;23;20012;-75
2022/05/26 15:51:00;;;;;;;11.77;3.13;;;17.90;70.80;;;;;;6189721;23;20333;-75
2022/05/26 15:53:47;;;;;;;17.58;3.47;;;17.80;71.20;;;;;;6164319;23;20048;-74
2022/05/26 15:56:44;;;;;;;19.35;3.67;;;17.80;71.80;;;;;;6165388;23;20327;-75
2022/05/26 15:59:50;;;;;;;13.07;3.60;;;17.80;72.80;;;;;;6166173;23;20110;-80
2022/05/26 16:22:49;;;;;;;24.38;5.35;;;17.40;75.40;;;;;;6217905;22;20036;-75
2022/05/26 16:25:16;;;;;;;18.08;5.30;;;17.40;75.20;;;;;;6193557;23;20322;-81
2022/05/26 16:27:43;;;;;;;16.17;4.80;;;17.20;75.90;;;;;;6194778;23;20105;-79
2022/05/26 16:30:14;;;;;;;17.30;4.35;;;17.20;76.00;;;;;;6194896;23;20019;-82
2022/05/26 16:32:42;;;;;;;16.23;4.55;;;17.10;76.70;;;;;;6220131;23;20061;-78
2022/05/26 16:37:57;;;;;;;21.90;4.40;;;16.90;77.00;;;;;;6219167;23;20013;-84
2022/05/26 16:40:23;;;;;;;17.60;3.97;;;16.80;77.90;;;;;;6194723;23;20074;-80
2022/05/26 16:42:53;;;;;;;15.48;5.05;;;16.70;78.80;;;;;;6219279;23;20015;-84
2022/05/26 16:45:20;;;;;;;19.60;6.50;;;16.50;78.90;;;;;;6194855;23;20048;-78
2022/05/26 16:47:46;;;;;;;17.35;4.97;;;16.40;81.20;;;;;;6195182;23;20009;-78
2022/05/26 16:50:13;;;;;;;23.13;6.25;;;16.30;81.30;;;;;;6194918;23;20005;-79
2022/05/26 16:52:39;;;;;;;21.10;4.95;;;16.30;83.50;;;;;;6195172;23;20012;-85
2022/05/26 16:55:08;;;;;;;18.95;5.47;;;16.20;83.20;;;;;;6194434;23;20012;-78
2022/05/26 16:57:34;;;;;;;23.23;5.45;;;16.20;84.40;;;;;;6194703;23;20320;-81
2022/05/26 16:59:59;;;;;;;19.35;5.43;;;16.10;84.80;;;;;;6194521;23;20012;-81
2022/05/26 17:02:26;;;;;;;18.00;4.78;;;16.10;84.40;;;;;;6194404;23;20008;-79
2022/05/26 17:04:57;;;;;;;16.35;4.75;;;16.00;87.40;;;;;;6196681;23;20012;-79
2022/05/26 17:07:23;;;;;;;16.23;4.90;;;15.90;88.30;;;;;;6195194;23;20008;-80
2022/05/26 17:25:49;;;;;;;26.40;7.00;;;15.40;91.40;;;;;;6106327;23;20045;-72
2022/05/26 17:28:18;;;;;;;26.27;7.30;;;15.30;91.60;;;;;;6164657;23;20012;-79
2022/05/26 17:30:49;;;;;;;22.58;7.10;;;15.30;91.30;;;;;;6164239;23;20062;-77
2022/05/26 17:33:35;;;;;;;21.33;6.60;;;15.20;91.40;;;;;;6189523;23;20426;-78
2022/05/26 17:36:02;;;;;;;23.63;7.22;;;15.20;92.00;;;;;;6190033;23;20004;-72
2022/05/26 17:38:28;;;;;;;;;;;15.10;92.60;;;;;;6216536;23;20055;-75
2022/05/26 17:40:54;;;;;;;24.20;7.85;;;15.10;92.70;;;;;;6216598;23;20231;-74
2022/05/26 17:43:32;;;;;;;34.58;8.38;;;15.00;92.70;;;;;;6164230;23;20008;-76
2022/05/26 17:46:00;;;;;;;25.20;7.85;;;15.00;93.10;;;;;;6169416;23;20008;-78
2022/05/26 17:48:26;;;;;;;27.42;7.43;;;14.90;92.90;;;;;;6176267;23;20009;-73
2022/05/26 17:50:53;;;;;;;29.80;7.70;;;15.00;92.90;;;;;;6191652;23;20015;-75
2022/05/26 17:53:24;;;;;;;25.25;7.05;;;15.00;93.20;;;;;;6188775;23;20677;-79
2022/05/26 17:56:30;;;;;;;25.95;7.38;;;14.90;93.60;;;;;;6164238;23;20091;-81
2022/05/26 17:58:59;;;;;;;26.80;7.03;;;14.90;93.50;;;;;;6189429;23;20072;-81
2022/05/26 18:01:27;;;;;;;25.70;7.05;;;14.90;93.30;;;;;;6188694;23;20016;-80
2022/05/26 18:03:55;;;;;;;29.15;7.72;;;14.90;93.50;;;;;;6160328;23;20017;-76
2022/05/26 18:06:21;;;;;;;30.38;7.28;;;14.90;93.30;;;;;;6162854;23;20020;-81
2022/05/26 18:08:52;;;;;;;28.70;6.50;;;15.00;93.60;;;;;;6162388;23;20539;-84
2022/05/26 18:11:17;;;;;;;27.15;6.70;;;15.00;93.10;;;;;;6163153;23;20009;-79
2022/05/26 18:13:43;;;;;;;26.88;6.88;;;15.10;92.80;;;;;;6189180;23;20498;-76
2022/05/26 18:16:13;;;;;;;31.77;7.80;;;15.20;93.20;;;;;;6181408;23;20021;-74
2022/05/26 18:26:07;;;;;;;31.10;6.90;;;15.30;92.50;;;;;;6164875;23;20012;-78
2022/05/26 18:29:31;;;;;;;26.92;6.00;;;15.30;92.80;;;;;;6062836;23;20425;-79
2022/05/26 18:32:22;;;;;;;21.27;5.15;;;15.30;92.40;;;;;;6064109;23;20384;-79
2022/05/26 18:34:54;;;;;;;23.40;5.57;;;15.30;92.50;;;;;;6092604;23;20034;-75
2022/05/26 18:37:33;;;;;;;23.40;5.65;;;15.30;92.20;;;;;;6152734;23;20084;-75
2022/05/26 18:40:18;;;;;;;28.88;6.03;;;15.20;92.30;;;;;;6127619;23;20048;-74
2022/05/26 18:42:49;;;;;;;36.35;7.28;;;15.30;92.60;;;;;;6127771;23;20436;-74
2022/05/26 18:45:19;;;;;;;30.55;7.07;;;15.20;92.60;;;;;;6128327;23;20045;-79
2022/05/26 18:48:14;;;;;;;30.80;7.10;;;15.20;92.90;;;;;;6128065;23;20052;-79
2022/05/26 18:50:45;;;;;;;35.42;6.35;;;15.20;92.70;;;;;;6081533;23;20048;-82
2022/05/26 18:53:18;;;;;;;27.10;6.22;;;15.10;92.70;;;;;;6103752;23;20051;-76
2022/05/26 18:55:45;;;;;;;26.40;5.75;;;15.10;92.80;;;;;;6128232;23;20092;-76
2022/05/26 18:58:15;;;;;;;33.08;6.45;;;15.10;92.70;;;;;;6128221;23;20055;-76
2022/05/26 19:00:45;;;;;;;26.90;6.32;;;15.10;92.80;;;;;;6173892;23;20048;-76
2022/05/26 19:03:14;;;;;;;31.95;6.25;;;15.10;92.60;;;;;;6189009;23;20011;-80
2022/05/26 19:05:56;;;;;;;29.13;6.35;;;15.10;92.70;;;;;;6163676;23;20012;-77
2022/05/26 19:12:00;;;;;;;33.40;5.80;;;15.10;92.90;;;;;;6092235;23;20013;-76
2022/05/26 19:14:40;;;;;;;33.05;6.75;;;15.10;92.70;;;;;;6164136;23;20005;-79
2022/05/26 19:17:28;;;;;;;30.05;5.72;;;15.00;92.90;;;;;;6188414;23;20074;-74
2022/05/26 19:20:25;;;;;;;28.83;6.18;;;15.00;93.10;;;;;;6133944;23;20023;-76
2022/05/26 19:27:31;;;;;;;29.77;6.18;;;15.00;93.10;;;;;;6051749;23;20015;-81
2022/05/26 19:29:57;;;;;;;45.75;6.90;;;15.00;93.20;;;;;;5934859;24;20020;-73
2022/05/26 19:32:23;;;;;;;30.45;6.30;;;15.00;93.20;;;;;;5928863;24;20460;-74
2022/05/26 19:34:49;;;;;;;34.33;7.75;;;15.00;93.30;;;;;;6004656;23;20015;-75
2022/05/26 19:37:28;;;;;;;;;;;;;;;;;;;;;
2022/05/26 19:40:34;;;;;;;32.60;6.20;;;14.90;93.40;;;;;;6189678;23;20315;-77
2022/05/26 19:43:49;;;;;;;;;;;;;;;;;;;;;
2022/05/26 19:50:05;;;;;;;30.20;6.40;;;14.90;93.70;;;;;;6179417;23;20058;-74
2022/05/26 19:52:33;;;;;;;34.53;5.57;;;14.80;93.30;;;;;;6164774;23;20070;-74
2022/05/26 19:54:59;;;;;;;37.35;6.78;;;14.90;93.40;;;;;;6188742;23;20044;-75
2022/05/26 19:57:25;;;;;;;37.92;6.65;;;14.80;93.50;;;;;;6189407;23;20012;-73
2022/05/26 19:59:51;;;;;;;33.95;6.00;;;14.80;93.60;;;;;;6140231;23;20012;-75
2022/05/26 20:02:19;;;;;;;30.63;6.18;;;14.80;93.30;;;;;;6188780;23;20379;-77
2022/05/26 20:04:48;;;;;;;35.88;6.70;;;14.80;93.60;;;;;;6140586;23;20450;-77
2022/05/26 20:07:16;;;;;;;34.50;6.57;;;14.70;93.60;;;;;;6164404;23;20087;-71
2022/05/26 20:09:56;;;;;;;42.28;7.38;;;14.60;93.60;;;;;;6188795;23;20015;-78
2022/05/26 20:12:23;;;;;;;41.50;7.00;;;14.60;93.80;;;;;;6163513;23;20012;-78
2022/05/26 20:14:52;;;;;;;36.63;6.85;;;14.60;93.70;;;;;;6164404;23;20016;-79
2022/05/26 20:21:28;;;;;;;39.50;8.20;;;14.60;94.00;;;;;;6155241;23;20016;-79
2022/05/26 20:24:06;;;;;;;35.90;6.40;;;14.60;94.10;;;;;;6105071;23;20009;-80
2022/05/26 20:27:05;;;;;;;32.47;6.38;;;14.50;93.90;;;;;;6105373;23;20389;-78
2022/05/26 20:29:33;;;;;;;34.78;6.65;;;14.60;94.00;;;;;;6129265;23;20088;-76
2022/05/26 20:35:40;;;;;;;42.55;9.05;;;14.50;94.10;;;;;;6155525;23;20083;-78
2022/05/26 20:38:14;;;;;;;42.58;7.95;;;14.50;94.20;;;;;;6105324;23;20009;-79
2022/05/26 20:40:40;;;;;;;30.35;6.72;;;14.50;94.10;;;;;;6107155;23;20360;-77
2022/05/26 20:43:06;;;;;;;41.00;7.07;;;14.50;94.40;;;;;;6107013;23;20454;-78
2022/05/26 20:45:32;;;;;;;35.83;6.82;;;14.50;94.10;;;;;;6131465;23;20412;-79
2022/05/26 20:48:00;;;;;;;43.78;7.97;;;14.50;93.90;;;;;;6106914;23;20080;-76
2022/05/26 20:50:26;;;;;;;44.92;8.30;;;14.50;94.40;;;;;;6107071;23;20432;-78
2022/05/26 20:52:51;;;;;;;35.40;6.93;;;14.50;94.20;;;;;;6106963;23;20013;-77
2022/05/26 20:55:17;;;;;;;43.63;8.15;;;14.50;94.10;;;;;;6107407;23;20016;-78
2022/05/26 20:57:43;;;;;;;40.22;7.38;;;14.50;94.30;;;;;;6131604;23;20052;-77
2022/05/26 21:00:13;;;;;;;44.78;7.05;;;14.50;94.40;;;;;;6131659;23;20186;-78
2022/05/26 21:02:39;;;;;;;41.08;6.93;;;14.50;94.20;;;;;;6106970;23;20014;-78
2022/05/26 21:05:06;;;;;;;;;;;14.50;94.30;;;;;;6110719;23;20020;-76
2022/05/26 21:07:35;;;;;;;31.10;6.23;;;14.60;94.20;;;;;;6123474;23;19908;-78
2022/05/26 21:10:07;;;;;;;37.28;7.90;;;14.60;94.10;;;;;;6150783;23;20301;-79
2022/05/26 21:12:36;;;;;;;36.05;6.40;;;14.60;94.00;;;;;;6106917;23;20041;-77
2022/05/26 21:15:03;;;;;;;36.88;6.32;;;14.60;94.00;;;;;;6117383;23;20432;-79
2022/05/26 21:17:29;;;;;;;43.05;7.10;;;14.60;94.00;;;;;;6107460;23;20067;-77
2022/05/26 21:19:55;;;;;;;45.70;7.50;;;14.70;94.00;;;;;;6136138;23;20052;-77
2022/05/26 21:26:32;;;;;;;31.77;5.88;;;14.60;93.80;;;;;;6186392;23;20048;-83
2022/05/26 21:29:16;;;;;;;35.97;6.22;;;14.60;93.90;;;;;;6159585;23;20352;-81
2022/05/26 21:32:04;;;;;;;37.83;7.60;;;14.60;93.80;;;;;;6135488;23;20420;-80
2022/05/26 21:34:39;;;;;;;42.28;8.15;;;14.50;93.90;;;;;;6136517;23;20368;-78
2022/05/26 21:37:10;;;;;;;38.85;7.00;;;14.60;93.80;;;;;;6135606;23;20012;-82
2022/05/26 21:39:38;;;;;;;39.00;6.55;;;14.60;93.90;;;;;;6128049;23;20063;-79
2022/05/26 21:42:24;;;;;;;39.47;7.30;;;14.60;93.80;;;;;;6160847;23;20364;-81
2022/05/26 21:45:16;;;;;;;39.92;7.03;;;14.70;93.90;;;;;;6141738;23;20016;-80
2022/05/26 21:47:47;;;;;;;41.22;7.85;;;14.60;93.80;;;;;;6191119;23;20309;-80
2022/05/26 21:50:30;;;;;;;41.00;7.35;;;14.70;93.90;;;;;;6165007;23;20028;-79
2022/05/26 21:52:59;;;;;;;40.60;7.72;;;14.60;93.90;;;;;;6142215;23;20008;-78
2022/05/26 21:55:30;;;;;;;47.10;7.82;;;14.70;93.90;;;;;;6165939;23;20371;-79
2022/05/26 21:58:03;;;;;;;52.55;9.30;;;14.70;93.90;;;;;;6165913;23;20350;-79
2022/05/26 22:00:59;;;;;;;46.13;8.18;;;14.70;93.80;;;;;;6166088;23;20013;-80
2022/05/26 22:03:32;;;;;;;36.00;7.32;;;14.60;94.00;;;;;;6191046;23;20366;-79
2022/05/26 22:11:48;;;;;;;33.95;7.75;;;14.60;94.00;;;;;;6190740;23;20441;-80
2022/05/26 22:17:18;;;;;;;36.75;6.72;;;14.60;94.20;;;;;;6179766;23;20019;-79
2022/05/26 22:19:44;;;;;;;37.35;8.32;;;14.60;94.30;;;;;;6160263;23;20542;-80
2022/05/26 22:22:22;;;;;;;28.95;6.75;;;14.50;94.30;;;;;;6160590;23;20009;-80
2022/05/26 22:24:53;;;;;;;32.25;6.78;;;14.50;94.20;;;;;;6159451;23;20009;-80
2022/05/26 22:27:19;;;;;;;31.60;6.03;;;14.50;94.10;;;;;;6160742;23;20005;-79
2022/05/26 22:29:48;;;;;;;30.13;6.38;;;14.50;94.50;;;;;;6160085;23;20391;-79
2022/05/26 22:32:25;;;;;;;31.27;6.82;;;14.50;94.40;;;;;;6160407;23;20020;-80
2022/05/26 22:37:47;;;;;;;30.00;6.68;;;14.40;94.40;;;;;;6160101;23;20124;-80
2022/05/26 22:40:24;;;;;;;23.33;5.38;;;14.40;94.30;;;;;;6136134;23;20020;-79
2022/05/26 22:43:01;;;;;;;33.03;6.03;;;14.40;94.60;;;;;;6135556;23;20013;-78
2022/05/26 22:45:33;;;;;;;;;;;14.40;94.60;;;;;;6147345;23;20009;-80
2022/05/26 22:48:03;;;;;;;24.88;4.95;;;14.30;94.40;;;;;;6160081;23;19908;-81
2022/05/26 22:50:30;;;;;;;23.08;4.78;;;14.30;94.20;;;;;;6150223;23;20394;-79
2022/05/26 22:53:13;;;;;;;21.90;4.95;;;14.30;94.10;;;;;;6136499;23;20009;-79
2022/05/26 22:55:45;;;;;;;19.83;4.40;;;14.30;94.00;;;;;;6135950;23;20043;-80
2022/05/26 22:58:40;;;;;;;27.23;4.75;;;14.30;94.10;;;;;;6136048;23;20016;-80
2022/05/26 23:01:25;;;;;;;23.27;5.03;;;14.20;94.00;;;;;;6126927;23;20020;-82
2022/05/26 23:03:54;;;;;;;26.08;4.68;;;14.20;94.10;;;;;;6161011;23;20319;-81
2022/05/26 23:06:26;;;;;;;23.80;5.00;;;14.20;94.10;;;;;;6161488;23;20012;-80
2022/05/26 23:09:03;;;;;;;31.77;5.28;;;14.20;94.10;;;;;;6161614;23;20319;-79
2022/05/26 23:11:35;;;;;;;23.30;4.70;;;14.20;93.90;;;;;;6160024;23;20462;-80
2022/05/26 23:14:06;;;;;;;26.08;5.28;;;14.20;94.10;;;;;;6160527;23;20009;-79
2022/05/26 23:16:37;;;;;;;23.70;4.72;;;14.20;94.00;;;;;;6160332;23;20017;-81
2022/05/26 23:19:16;;;;;;;;;;;;;;;;;;;;;
2022/05/26 23:21:53;;;;;;;22.75;5.00;;;14.10;93.90;;;;;;6183979;23;20013;-79
2022/05/26 23:24:26;;;;;;;24.80;5.53;;;14.10;93.90;;;;;;6160143;23;20005;-81
2022/05/26 23:27:21;;;;;;;23.95;4.93;;;14.10;93.80;;;;;;6160741;23;20092;-82
2022/05/26 23:30:03;;;;;;;22.25;4.95;;;14.00;93.80;;;;;;6184424;23;20015;-80
2022/05/26 23:32:42;;;;;;;21.98;4.35;;;14.00;93.90;;;;;;6184619;23;20048;-79
2022/05/26 23:35:29;;;;;;;21.45;4.88;;;14.10;93.80;;;;;;6160123;23;20013;-81
2022/05/26 23:38:08;;;;;;;22.48;4.05;;;14.00;93.80;;;;;;6159563;23;20035;-79
2022/05/26 23:43:37;;;;;;;;;;;;;;;;;;;;;
2022/05/26 23:46:11;;;;;;;29.48;4.35;;;13.90;93.80;;;;;;6183436;23;20033;-81
2022/05/26 23:48:45;;;;;;;17.02;4.63;;;13.80;93.80;;;;;;6184951;23;20005;-80
2022/05/26 23:51:17;;;;;;;23.60;4.03;;;13.80;93.90;;;;;;6159971;23;20005;-80
2022/05/26 23:53:57;;;;;;;23.15;4.30;;;13.70;93.90;;;;;;6136859;23;20020;-79
2022/05/26 23:59:34;;;;;;;17.95;4.28;;;13.60;93.80;;;;;;6165246;23;20017;-82
